sensor_id;sensor_type;location;lat;lon;timestamp;pressure;altitude;pressure_sealevel;temperature;humidity
69058;BME280;56128;37.534;-122.308;2023-02-17T00:02:11;101985.75;;;12.65;44.17
69058;BME280;56128;37.534;-122.308;2023-02-17T00:04:37;101981.50;;;12.61;45.75
69058;BME280;56128;37.534;-122.308;2023-02-17T00:07:03;101972.22;;;12.52;45.16
69058;BME280;56128;37.534;-122.308;2023-02-17T00:09:30;101982.13;;;12.52;45.89
69058;BME280;56128;37.534;-122.308;2023-02-17T00:11:56;101980.44;;;12.36;47.16
69058;BME280;56128;37.534;-122.308;2023-02-17T00:14:22;101987.81;;;12.32;47.09
69058;BME280;56128;37.534;-122.308;2023-02-17T00:16:48;101976.13;;;12.19;46.60
69058;BME280;56128;37.534;-122.308;2023-02-17T00:19:14;101986.66;;;12.22;45.34
69058;BME280;56128;37.534;-122.308;2023-02-17T00:21:54;101983.53;;;12.15;47.53
69058;BME280;56128;37.534;-122.308;2023-02-17T00:24:22;101980.94;;;11.99;47.50
69058;BME280;56128;37.534;-122.308;2023-02-17T00:26:49;101978.19;;;12.01;47.03
69058;BME280;56128;37.534;-122.308;2023-02-17T00:29:15;101975.84;;;11.95;48.52
69058;BME280;56128;37.534;-122.308;2023-02-17T00:31:42;101978.50;;;11.80;48.82
69058;BME280;56128;37.534;-122.308;2023-02-17T00:34:09;101972.78;;;11.72;48.55
69058;BME280;56128;37.534;-122.308;2023-02-17T00:36:36;101973.44;;;11.61;49.01
69058;BME280;56128;37.534;-122.308;2023-02-17T00:39:03;101975.53;;;11.56;49.26
69058;BME280;56128;37.534;-122.308;2023-02-17T00:41:30;101982.50;;;11.44;49.46
69058;BME280;56128;37.534;-122.308;2023-02-17T00:43:57;101983.06;;;11.35;49.28
69058;BME280;56128;37.534;-122.308;2023-02-17T00:46:24;101983.53;;;11.27;49.90
69058;BME280;56128;37.534;-122.308;2023-02-17T00:48:51;101979.47;;;11.20;49.06
69058;BME280;56128;37.534;-122.308;2023-02-17T00:51:18;101969.78;;;11.03;47.68
69058;BME280;56128;37.534;-122.308;2023-02-17T00:53:45;101977.38;;;10.95;48.06
69058;BME280;56128;37.534;-122.308;2023-02-17T00:56:12;101968.91;;;10.86;51.46
69058;BME280;56128;37.534;-122.308;2023-02-17T00:58:38;101974.97;;;10.74;49.21
69058;BME280;56128;37.534;-122.308;2023-02-17T01:01:07;101977.16;;;10.67;49.58
69058;BME280;56128;37.534;-122.308;2023-02-17T01:03:33;101970.72;;;10.55;49.97
69058;BME280;56128;37.534;-122.308;2023-02-17T01:06:07;101970.38;;;10.46;50.94
69058;BME280;56128;37.534;-122.308;2023-02-17T01:08:34;101970.00;;;10.36;51.99
69058;BME280;56128;37.534;-122.308;2023-02-17T01:11:00;101966.34;;;10.21;50.78
69058;BME280;56128;37.534;-122.308;2023-02-17T01:13:27;101965.03;;;10.12;51.24
69058;BME280;56128;37.534;-122.308;2023-02-17T01:15:53;101964.63;;;10.04;53.10
69058;BME280;56128;37.534;-122.308;2023-02-17T01:18:22;101964.66;;;9.86;53.87
69058;BME280;56128;37.534;-122.308;2023-02-17T01:20:48;101969.72;;;9.75;53.79
69058;BME280;56128;37.534;-122.308;2023-02-17T01:23:15;101962.97;;;9.68;53.55
69058;BME280;56128;37.534;-122.308;2023-02-17T01:25:43;101956.56;;;9.54;53.95
69058;BME280;56128;37.534;-122.308;2023-02-17T01:28:14;101953.44;;;9.46;55.41
69058;BME280;56128;37.534;-122.308;2023-02-17T01:30:41;101955.78;;;9.35;55.50
69058;BME280;56128;37.534;-122.308;2023-02-17T01:33:07;101959.88;;;9.24;55.69
69058;BME280;56128;37.534;-122.308;2023-02-17T01:35:34;101955.16;;;9.12;57.68
69058;BME280;56128;37.534;-122.308;2023-02-17T01:38:00;101955.63;;;9.03;56.63
69058;BME280;56128;37.534;-122.308;2023-02-17T01:40:26;101953.56;;;8.90;57.04
69058;BME280;56128;37.534;-122.308;2023-02-17T01:42:52;101956.72;;;8.81;58.12
69058;BME280;56128;37.534;-122.308;2023-02-17T01:48:10;101964.19;;;8.55;59.78
69058;BME280;56128;37.534;-122.308;2023-02-17T01:50:41;101955.00;;;8.42;60.41
69058;BME280;56128;37.534;-122.308;2023-02-17T01:53:10;101969.88;;;8.28;60.73
69058;BME280;56128;37.534;-122.308;2023-02-17T01:55:40;101960.66;;;8.17;62.33
69058;BME280;56128;37.534;-122.308;2023-02-17T01:58:08;101970.81;;;8.08;62.13
69058;BME280;56128;37.534;-122.308;2023-02-17T02:00:36;101975.78;;;7.97;62.61
69058;BME280;56128;37.534;-122.308;2023-02-17T02:03:05;101970.00;;;7.87;63.28
69058;BME280;56128;37.534;-122.308;2023-02-17T02:05:33;101972.28;;;7.76;63.80
69058;BME280;56128;37.534;-122.308;2023-02-17T02:08:00;101974.56;;;7.64;64.09
69058;BME280;56128;37.534;-122.308;2023-02-17T02:10:26;101975.84;;;7.56;64.72
69058;BME280;56128;37.534;-122.308;2023-02-17T02:12:52;101975.56;;;7.41;66.03
69058;BME280;56128;37.534;-122.308;2023-02-17T02:15:23;101979.38;;;7.36;68.10
69058;BME280;56128;37.534;-122.308;2023-02-17T02:18:02;101986.06;;;7.24;69.09
69058;BME280;56128;37.534;-122.308;2023-02-17T02:21:16;101980.56;;;7.08;71.30
69058;BME280;56128;37.534;-122.308;2023-02-17T02:24:01;101982.06;;;6.93;71.68
69058;BME280;56128;37.534;-122.308;2023-02-17T02:34:49;101987.75;;;6.39;82.86
69058;BME280;56128;37.534;-122.308;2023-02-17T02:37:27;101990.69;;;6.31;82.77
69058;BME280;56128;37.534;-122.308;2023-02-17T02:39:59;101987.63;;;6.18;83.70
69058;BME280;56128;37.534;-122.308;2023-02-17T02:42:28;101979.19;;;6.07;84.17
69058;BME280;56128;37.534;-122.308;2023-02-17T02:44:55;101987.34;;;6.03;83.45
69058;BME280;56128;37.534;-122.308;2023-02-17T02:47:50;101992.03;;;5.94;84.71
69058;BME280;56128;37.534;-122.308;2023-02-17T02:52:57;101990.88;;;5.78;87.34
69058;BME280;56128;37.534;-122.308;2023-02-17T02:55:47;101988.66;;;5.65;85.67
69058;BME280;56128;37.534;-122.308;2023-02-17T03:01:07;101986.56;;;5.50;87.90
69058;BME280;56128;37.534;-122.308;2023-02-17T03:06:56;101984.47;;;5.33;90.73
69058;BME280;56128;37.534;-122.308;2023-02-17T03:09:25;101981.19;;;5.26;90.60
69058;BME280;56128;37.534;-122.308;2023-02-17T03:11:56;101993.47;;;5.29;91.20
69058;BME280;56128;37.534;-122.308;2023-02-17T03:14:23;101992.72;;;5.25;91.63
69058;BME280;56128;37.534;-122.308;2023-02-17T03:16:50;101998.13;;;5.22;92.37
69058;BME280;56128;37.534;-122.308;2023-02-17T03:19:19;101991.25;;;5.16;93.49
69058;BME280;56128;37.534;-122.308;2023-02-17T03:22:09;101999.31;;;5.13;93.27
69058;BME280;56128;37.534;-122.308;2023-02-17T03:24:37;101992.41;;;5.08;94.51
69058;BME280;56128;37.534;-122.308;2023-02-17T03:27:04;101998.75;;;5.03;93.56
69058;BME280;56128;37.534;-122.308;2023-02-17T03:29:30;101990.31;;;4.91;94.51
69058;BME280;56128;37.534;-122.308;2023-02-17T03:31:56;101986.03;;;4.86;94.90
69058;BME280;56128;37.534;-122.308;2023-02-17T03:34:22;102003.75;;;4.86;99.83
69058;BME280;56128;37.534;-122.308;2023-02-17T03:36:48;101996.78;;;4.82;97.04
69058;BME280;56128;37.534;-122.308;2023-02-17T03:39:15;101997.59;;;4.84;99.41
69058;BME280;56128;37.534;-122.308;2023-02-17T03:41:41;102003.81;;;4.83;98.14
69058;BME280;56128;37.534;-122.308;2023-02-17T03:44:07;101998.69;;;4.78;98.98
69058;BME280;56128;37.534;-122.308;2023-02-17T03:46:34;101988.31;;;4.70;99.80
69058;BME280;56128;37.534;-122.308;2023-02-17T03:49:00;101997.28;;;4.66;100.00
69058;BME280;56128;37.534;-122.308;2023-02-17T03:51:26;101997.28;;;4.66;100.00
69058;BME280;56128;37.534;-122.308;2023-02-17T03:53:53;101998.31;;;4.62;100.00
69058;BME280;56128;37.534;-122.308;2023-02-17T03:56:19;102000.28;;;4.55;100.00
69058;BME280;56128;37.534;-122.308;2023-02-17T03:58:45;102000.28;;;4.55;100.00
69058;BME280;56128;37.534;-122.308;2023-02-17T04:01:12;102002.06;;;4.55;100.00
69058;BME280;56128;37.534;-122.308;2023-02-17T04:03:39;102002.00;;;4.57;100.00
69058;BME280;56128;37.534;-122.308;2023-02-17T04:06:06;102005.47;;;4.59;100.00
69058;BME280;56128;37.534;-122.308;2023-02-17T04:08:33;102002.97;;;4.54;100.00
69058;BME280;56128;37.534;-122.308;2023-02-17T04:11:01;102007.34;;;4.55;100.00
69058;BME280;56128;37.534;-122.308;2023-02-17T04:13:28;102003.16;;;4.48;100.00
69058;BME280;56128;37.534;-122.308;2023-02-17T04:15:55;102011.81;;;4.53;100.00
69058;BME280;56128;37.534;-122.308;2023-02-17T04:18:21;102003.00;;;4.52;100.00
69058;BME280;56128;37.534;-122.308;2023-02-17T04:20:49;102007.66;;;4.46;100.00
69058;BME280;56128;37.534;-122.308;2023-02-17T04:23:15;102001.44;;;4.47;100.00
69058;BME280;56128;37.534;-122.308;2023-02-17T04:25:42;102010.25;;;4.47;100.00
69058;BME280;56128;37.534;-122.308;2023-02-17T04:28:08;102017.47;;;4.42;100.00
69058;BME280;56128;37.534;-122.308;2023-02-17T04:30:35;102004.28;;;4.39;100.00
69058;BME280;56128;37.534;-122.308;2023-02-17T04:33:01;102000.88;;;4.35;100.00
69058;BME280;56128;37.534;-122.308;2023-02-17T04:35:28;102007.97;;;4.35;100.00
69058;BME280;56128;37.534;-122.308;2023-02-17T04:37:54;102013.22;;;4.36;100.00
69058;BME280;56128;37.534;-122.308;2023-02-17T04:40:20;102000.97;;;4.32;100.00
69058;BME280;56128;37.534;-122.308;2023-02-17T04:42:47;102003.56;;;4.34;100.00
69058;BME280;56128;37.534;-122.308;2023-02-17T04:45:14;102016.75;;;4.37;100.00
69058;BME280;56128;37.534;-122.308;2023-02-17T04:47:40;102010.56;;;4.36;100.00
69058;BME280;56128;37.534;-122.308;2023-02-17T04:50:07;102007.00;;;4.37;100.00
69058;BME280;56128;37.534;-122.308;2023-02-17T04:52:34;102007.22;;;4.30;100.00
69058;BME280;56128;37.534;-122.308;2023-02-17T04:55:00;102015.06;;;4.33;100.00
69058;BME280;56128;37.534;-122.308;2023-02-17T04:57:26;102021.25;;;4.33;100.00
69058;BME280;56128;37.534;-122.308;2023-02-17T04:59:55;102009.94;;;4.28;100.00
69058;BME280;56128;37.534;-122.308;2023-02-17T05:02:22;102016.03;;;4.30;100.00
69058;BME280;56128;37.534;-122.308;2023-02-17T05:04:52;102013.38;;;4.30;100.00
69058;BME280;56128;37.534;-122.308;2023-02-17T05:07:19;102025.59;;;4.36;100.00
69058;BME280;56128;37.534;-122.308;2023-02-17T05:09:45;102021.22;;;4.35;100.00
69058;BME280;56128;37.534;-122.308;2023-02-17T05:12:12;102013.22;;;4.36;100.00
69058;BME280;56128;37.534;-122.308;2023-02-17T05:14:38;102012.34;;;4.36;100.00
69058;BME280;56128;37.534;-122.308;2023-02-17T05:17:04;102011.53;;;4.34;100.00
69058;BME280;56128;37.534;-122.308;2023-02-17T05:19:30;102015.06;;;4.34;100.00
69058;BME280;56128;37.534;-122.308;2023-02-17T05:21:56;102016.75;;;4.35;100.00
69058;BME280;56128;37.534;-122.308;2023-02-17T05:24:23;102014.09;;;4.37;100.00
69058;BME280;56128;37.534;-122.308;2023-02-17T05:26:52;102015.06;;;4.34;100.00
69058;BME280;56128;37.534;-122.308;2023-02-17T05:29:18;102009.84;;;4.31;100.00
69058;BME280;56128;37.534;-122.308;2023-02-17T05:31:45;102015.06;;;4.34;100.00
69058;BME280;56128;37.534;-122.308;2023-02-17T05:34:12;102015.84;;;4.36;100.00
69058;BME280;56128;37.534;-122.308;2023-02-17T05:36:38;102009.75;;;4.34;100.00
69058;BME280;56128;37.534;-122.308;2023-02-17T05:39:04;102012.34;;;4.36;100.00
69058;BME280;56128;37.534;-122.308;2023-02-17T05:41:30;102010.66;;;4.33;100.00
69058;BME280;56128;37.534;-122.308;2023-02-17T05:43:56;102013.19;;;4.38;100.00
69058;BME280;56128;37.534;-122.308;2023-02-17T05:46:23;102011.56;;;4.32;100.00
69058;BME280;56128;37.534;-122.308;2023-02-17T05:48:49;102022.06;;;4.35;100.00
69058;BME280;56128;37.534;-122.308;2023-02-17T05:51:15;102020.44;;;4.31;100.00
69058;BME280;56128;37.534;-122.308;2023-02-17T05:53:42;102020.44;;;4.31;100.00
69058;BME280;56128;37.534;-122.308;2023-02-17T05:56:09;102022.28;;;4.29;100.00
69058;BME280;56128;37.534;-122.308;2023-02-17T05:58:37;102010.75;;;4.30;100.00
69058;BME280;56128;37.534;-122.308;2023-02-17T06:01:10;102009.94;;;4.28;100.00
69058;BME280;56128;37.534;-122.308;2023-02-17T06:03:37;102007.34;;;4.27;100.00
69058;BME280;56128;37.534;-122.308;2023-02-17T06:06:05;102011.69;;;4.29;100.00
69058;BME280;56128;37.534;-122.308;2023-02-17T06:08:32;102013.50;;;4.27;100.00
69058;BME280;56128;37.534;-122.308;2023-02-17T06:10:59;102020.53;;;4.28;100.00
69058;BME280;56128;37.534;-122.308;2023-02-17T06:13:25;102022.34;;;4.26;100.00
69058;BME280;56128;37.534;-122.308;2023-02-17T06:15:52;102026.88;;;4.22;100.00
69058;BME280;56128;37.534;-122.308;2023-02-17T06:18:18;102024.16;;;4.24;100.00
69058;BME280;56128;37.534;-122.308;2023-02-17T06:20:44;102024.22;;;4.22;100.00
69058;BME280;56128;37.534;-122.308;2023-02-17T06:23:11;102020.84;;;4.17;100.00
69058;BME280;56128;37.534;-122.308;2023-02-17T06:25:37;102023.44;;;4.19;100.00
69058;BME280;56128;37.534;-122.308;2023-02-17T06:28:03;102028.66;;;4.22;100.00
69058;BME280;56128;37.534;-122.308;2023-02-17T06:30:30;102026.09;;;4.19;100.00
69058;BME280;56128;37.534;-122.308;2023-02-17T06:32:56;102030.59;;;4.17;100.00
69058;BME280;56128;37.534;-122.308;2023-02-17T06:35:24;102019.09;;;4.16;100.00
69058;BME280;56128;37.534;-122.308;2023-02-17T06:37:50;102024.41;;;4.16;100.00
69058;BME280;56128;37.534;-122.308;2023-02-17T06:40:17;102025.31;;;4.15;100.00
69058;BME280;56128;37.534;-122.308;2023-02-17T06:42:43;102027.88;;;4.18;100.00
69058;BME280;56128;37.534;-122.308;2023-02-17T06:45:09;102018.28;;;4.14;100.00
69058;BME280;56128;37.534;-122.308;2023-02-17T06:47:36;102020.88;;;4.16;100.00
69058;BME280;56128;37.534;-122.308;2023-02-17T06:50:02;102023.53;;;4.16;100.00
69058;BME280;56128;37.534;-122.308;2023-02-17T06:52:28;102019.06;;;4.18;100.00
69058;BME280;56128;37.534;-122.308;2023-02-17T06:54:54;102022.63;;;4.17;100.00
69058;BME280;56128;37.534;-122.308;2023-02-17T06:57:20;102018.25;;;4.16;100.00
69058;BME280;56128;37.534;-122.308;2023-02-17T06:59:47;102013.03;;;4.13;100.00
69058;BME280;56128;37.534;-122.308;2023-02-17T07:02:13;102020.06;;;4.14;100.00
69058;BME280;56128;37.534;-122.308;2023-02-17T07:04:40;102026.25;;;4.14;100.00
69058;BME280;56128;37.534;-122.308;2023-02-17T07:07:08;102024.56;;;4.12;100.00
69058;BME280;56128;37.534;-122.308;2023-02-17T07:09:34;102029.88;;;4.10;100.00
69058;BME280;56128;37.534;-122.308;2023-02-17T07:12:00;102022.97;;;4.04;100.00
69058;BME280;56128;37.534;-122.308;2023-02-17T07:14:27;102030.03;;;4.04;100.00
69058;BME280;56128;37.534;-122.308;2023-02-17T07:16:53;102032.88;;;3.98;100.00
69058;BME280;56128;37.534;-122.308;2023-02-17T07:19:19;102038.16;;;3.99;100.00
69058;BME280;56128;37.534;-122.308;2023-02-17T07:21:46;102040.84;;;3.96;100.00
69058;BME280;56128;37.534;-122.308;2023-02-17T07:24:12;102035.59;;;3.95;100.00
69058;BME280;56128;37.534;-122.308;2023-02-17T07:26:39;102033.88;;;3.94;100.00
69058;BME280;56128;37.534;-122.308;2023-02-17T07:29:06;102039.34;;;3.87;100.00
69058;BME280;56128;37.534;-122.308;2023-02-17T07:31:33;102042.03;;;3.86;100.00
69058;BME280;56128;37.534;-122.308;2023-02-17T07:34:01;102036.84;;;3.83;100.00
69058;BME280;56128;37.534;-122.308;2023-02-17T07:36:27;102031.66;;;3.78;100.00
69058;BME280;56128;37.534;-122.308;2023-02-17T07:38:53;102035.25;;;3.76;100.00
69058;BME280;56128;37.534;-122.308;2023-02-17T07:41:21;102025.66;;;3.71;100.00
69058;BME280;56128;37.534;-122.308;2023-02-17T07:43:52;102032.78;;;3.69;100.00
69058;BME280;56128;37.534;-122.308;2023-02-17T07:46:19;102031.19;;;3.62;100.00
69058;BME280;56128;37.534;-122.308;2023-02-17T07:48:46;102031.28;;;3.59;100.00
69058;BME280;56128;37.534;-122.308;2023-02-17T07:51:18;102039.34;;;3.54;100.00
69058;BME280;56128;37.534;-122.308;2023-02-17T07:53:44;102031.50;;;3.50;100.00
69058;BME280;56128;37.534;-122.308;2023-02-17T07:56:12;102041.41;;;3.43;100.00
69058;BME280;56128;37.534;-122.308;2023-02-17T07:58:41;102036.25;;;3.37;100.00
69058;BME280;56128;37.534;-122.308;2023-02-17T08:01:14;102039.84;;;3.34;100.00
69058;BME280;56128;37.534;-122.308;2023-02-17T08:03:40;102036.47;;;3.29;100.00
69058;BME280;56128;37.534;-122.308;2023-02-17T08:06:12;102041.81;;;3.26;100.00
69058;BME280;56128;37.534;-122.308;2023-02-17T08:08:39;102041.91;;;3.23;100.00
69058;BME280;56128;37.534;-122.308;2023-02-17T08:11:25;102041.16;;;3.18;100.00
69058;BME280;56128;37.534;-122.308;2023-02-17T08:14:10;102036.00;;;3.12;100.00
69058;BME280;56128;37.534;-122.308;2023-02-17T08:16:36;102031.72;;;3.06;100.00
69058;BME280;56128;37.534;-122.308;2023-02-17T08:19:02;102037.03;;;3.06;100.00
69058;BME280;56128;37.534;-122.308;2023-02-17T08:21:28;102033.56;;;3.04;100.00
69058;BME280;56128;37.534;-122.308;2023-02-17T08:23:55;102038.06;;;3.00;100.00
69058;BME280;56128;37.534;-122.308;2023-02-17T08:26:21;102043.38;;;2.99;100.00
69058;BME280;56128;37.534;-122.308;2023-02-17T08:28:48;102036.38;;;2.96;100.00
69058;BME280;56128;37.534;-122.308;2023-02-17T08:31:26;102034.72;;;2.92;100.00
69058;BME280;56128;37.534;-122.308;2023-02-17T08:33:54;102033.94;;;2.87;100.00
69058;BME280;56128;37.534;-122.308;2023-02-17T08:36:21;102036.59;;;2.87;100.00
69058;BME280;56128;37.534;-122.308;2023-02-17T08:38:54;102026.16;;;2.81;100.00
69058;BME280;56128;37.534;-122.308;2023-02-17T08:41:28;102028.00;;;2.79;100.00
69058;BME280;56128;37.534;-122.308;2023-02-17T08:43:56;102026.25;;;2.78;100.00
69058;BME280;56128;37.534;-122.308;2023-02-17T08:46:23;102033.34;;;2.75;100.00
69058;BME280;56128;37.534;-122.308;2023-02-17T08:48:50;102032.53;;;2.72;100.00
69058;BME280;56128;37.534;-122.308;2023-02-17T08:51:19;102032.53;;;2.72;100.00
69058;BME280;56128;37.534;-122.308;2023-02-17T08:53:55;102028.16;;;2.71;100.00
69058;BME280;56128;37.534;-122.308;2023-02-17T08:56:23;102029.03;;;2.71;100.00
69058;BME280;56128;37.534;-122.308;2023-02-17T08:58:50;102033.47;;;2.69;100.00
69058;BME280;56128;37.534;-122.308;2023-02-17T09:01:16;102023.78;;;2.68;100.00
69058;BME280;56128;37.534;-122.308;2023-02-17T09:03:47;102025.59;;;2.68;100.00
69058;BME280;56128;37.534;-122.308;2023-02-17T09:06:14;102022.13;;;2.64;100.00
69058;BME280;56128;37.534;-122.308;2023-02-17T09:08:41;102022.19;;;2.63;100.00
69058;BME280;56128;37.534;-122.308;2023-02-17T09:11:08;102028.41;;;2.60;100.00
69058;BME280;56128;37.534;-122.308;2023-02-17T09:13:35;102019.63;;;2.58;100.00
69058;BME280;56128;37.534;-122.308;2023-02-17T09:16:02;102022.38;;;2.53;100.00
69058;BME280;56128;37.534;-122.308;2023-02-17T09:18:28;102018.84;;;2.54;100.00
69058;BME280;56128;37.534;-122.308;2023-02-17T09:20:54;102018.09;;;2.48;100.00
69058;BME280;56128;37.534;-122.308;2023-02-17T09:23:21;102020.66;;;2.51;100.00
69058;BME280;56128;37.534;-122.308;2023-02-17T09:25:47;102017.22;;;2.47;100.00
69058;BME280;56128;37.534;-122.308;2023-02-17T09:28:13;102013.81;;;2.42;100.00
69058;BME280;56128;37.534;-122.308;2023-02-17T09:30:40;102005.06;;;2.40;100.00
69058;BME280;56128;37.534;-122.308;2023-02-17T09:33:06;102016.50;;;2.40;100.00
69058;BME280;56128;37.534;-122.308;2023-02-17T09:35:32;102006.00;;;2.37;100.00
69058;BME280;56128;37.534;-122.308;2023-02-17T09:37:59;102007.72;;;2.38;100.00
69058;BME280;56128;37.534;-122.308;2023-02-17T09:43:05;101993.88;;;2.27;100.00
69058;BME280;56128;37.534;-122.308;2023-02-17T09:45:34;101995.63;;;2.28;100.00
69058;BME280;56128;37.534;-122.308;2023-02-17T09:48:07;101998.28;;;2.28;100.00
69058;BME280;56128;37.534;-122.308;2023-02-17T09:51:00;101993.97;;;2.24;100.00
69058;BME280;56128;37.534;-122.308;2023-02-17T09:56:23;101987.97;;;2.17;100.00
69058;BME280;56128;37.534;-122.308;2023-02-17T09:59:26;101993.31;;;2.13;100.00
69058;BME280;56128;37.534;-122.308;2023-02-17T10:01:53;101992.56;;;2.07;100.00
69058;BME280;56128;37.534;-122.308;2023-02-17T10:04:22;101990.81;;;2.06;100.00
69058;BME280;56128;37.534;-122.308;2023-02-17T10:10:15;101998.81;;;2.02;100.00
69058;BME280;56128;37.534;-122.308;2023-02-17T10:12:49;101994.47;;;1.99;100.00
69058;BME280;56128;37.534;-122.308;2023-02-17T10:15:30;101994.56;;;1.96;100.00
69058;BME280;56128;37.534;-122.308;2023-02-17T10:18:11;101980.63;;;1.88;100.00
69058;BME280;56128;37.534;-122.308;2023-02-17T10:20:56;101983.22;;;1.89;100.00
69058;BME280;56128;37.534;-122.308;2023-02-17T10:23:27;101973.69;;;1.84;100.00
69058;BME280;56128;37.534;-122.308;2023-02-17T10:29:05;101975.59;;;1.77;100.00
69058;BME280;56128;37.534;-122.308;2023-02-17T10:31:52;101980.06;;;1.73;100.00
69058;BME280;56128;37.534;-122.308;2023-02-17T10:37:39;101968.66;;;1.71;100.00
69058;BME280;56128;37.534;-122.308;2023-02-17T10:40:18;101961.66;;;1.69;100.00
69058;BME280;56128;37.534;-122.308;2023-02-17T10:42:47;101960.00;;;1.63;100.00
69058;BME280;56128;37.534;-122.308;2023-02-17T10:47:47;101953.81;;;1.64;100.00
69058;BME280;56128;37.534;-122.308;2023-02-17T10:50:21;101953.81;;;1.64;100.00
69058;BME280;56128;37.534;-122.308;2023-02-17T10:52:49;101950.38;;;1.62;100.00
69058;BME280;56128;37.534;-122.308;2023-02-17T10:55:20;101953.00;;;1.60;100.00
69058;BME280;56128;37.534;-122.308;2023-02-17T10:57:53;101944.28;;;1.58;100.00
69058;BME280;56128;37.534;-122.308;2023-02-17T11:00:20;101953.09;;;1.57;100.00
69058;BME280;56128;37.534;-122.308;2023-02-17T11:02:48;101940.88;;;1.53;100.00
69058;BME280;56128;37.534;-122.308;2023-02-17T11:05:31;101946.09;;;1.55;100.00
69058;BME280;56128;37.534;-122.308;2023-02-17T11:08:06;101938.22;;;1.52;100.00
69058;BME280;56128;37.534;-122.308;2023-02-17T11:10:36;101940.84;;;1.55;100.00
69058;BME280;56128;37.534;-122.308;2023-02-17T11:13:31;101934.66;;;1.54;100.00
69058;BME280;56128;37.534;-122.308;2023-02-17T11:15:59;101938.22;;;1.53;100.00
69058;BME280;56128;37.534;-122.308;2023-02-17T11:18:29;101936.53;;;1.51;100.00
69058;BME280;56128;37.534;-122.308;2023-02-17T11:21:09;101935.66;;;1.49;100.00
69058;BME280;56128;37.534;-122.308;2023-02-17T11:23:57;101933.06;;;1.47;100.00
69058;BME280;56128;37.534;-122.308;2023-02-17T11:26:26;101928.66;;;1.48;100.00
69058;BME280;56128;37.534;-122.308;2023-02-17T11:28:53;101922.56;;;1.44;100.00
69058;BME280;56128;37.534;-122.308;2023-02-17T11:31:24;101932.38;;;1.37;100.00
69058;BME280;56128;37.534;-122.308;2023-02-17T11:33:51;101924.47;;;1.37;100.00
69058;BME280;56128;37.534;-122.308;2023-02-17T11:36:23;101930.63;;;1.36;100.00
69058;BME280;56128;37.534;-122.308;2023-02-17T11:38:50;101923.66;;;1.34;100.00
69058;BME280;56128;37.534;-122.308;2023-02-17T11:41:16;101924.56;;;1.31;100.00
69058;BME280;56128;37.534;-122.308;2023-02-17T11:43:56;101921.94;;;1.31;100.00
69058;BME280;56128;37.534;-122.308;2023-02-17T11:47:40;101923.72;;;1.29;100.00
69058;BME280;56128;37.534;-122.308;2023-02-17T11:53:07;101921.13;;;1.27;100.00
69058;BME280;56128;37.534;-122.308;2023-02-17T11:58:51;101905.44;;;1.20;100.00
69058;BME280;56128;37.534;-122.308;2023-02-17T12:04:31;101905.41;;;1.21;100.00
69058;BME280;56128;37.534;-122.308;2023-02-17T12:07:31;101904.66;;;1.15;100.00
69058;BME280;56128;37.534;-122.308;2023-02-17T12:10:34;101909.06;;;1.16;100.00
69058;BME280;56128;37.534;-122.308;2023-02-17T12:15:48;101900.22;;;1.17;100.00
69058;BME280;56128;37.534;-122.308;2023-02-17T12:18:48;101916.13;;;1.12;100.00
69058;BME280;56128;37.534;-122.308;2023-02-17T12:26:53;101908.41;;;1.01;100.00
69058;BME280;56128;37.534;-122.308;2023-02-17T12:34:57;101896.19;;;0.97;100.00
69058;BME280;56128;37.534;-122.308;2023-02-17T12:37:29;101897.91;;;1.00;100.00
69058;BME280;56128;37.534;-122.308;2023-02-17T12:43:26;101895.34;;;0.95;100.00
69058;BME280;56128;37.534;-122.308;2023-02-17T12:45:58;101892.72;;;0.95;100.00
69058;BME280;56128;37.534;-122.308;2023-02-17T12:48:38;101892.78;;;0.92;100.00
69058;BME280;56128;37.534;-122.308;2023-02-17T12:54:16;101888.38;;;0.92;100.00
69058;BME280;56128;37.534;-122.308;2023-02-17T12:59:44;101891.13;;;0.85;100.00
69058;BME280;56128;37.534;-122.308;2023-02-17T13:02:16;101875.34;;;0.85;100.00
69058;BME280;56128;37.534;-122.308;2023-02-17T13:04:44;101884.16;;;0.82;100.00
69058;BME280;56128;37.534;-122.308;2023-02-17T13:07:32;101879.75;;;0.83;100.00
69058;BME280;56128;37.534;-122.308;2023-02-17T13:10:01;101886.84;;;0.80;100.00
69058;BME280;56128;37.534;-122.308;2023-02-17T13:12:32;101891.25;;;0.78;100.00
69058;BME280;56128;37.534;-122.308;2023-02-17T13:15:01;101884.22;;;0.77;100.00
69058;BME280;56128;37.534;-122.308;2023-02-17T13:17:30;101888.66;;;0.77;100.00
69058;BME280;56128;37.534;-122.308;2023-02-17T13:22:39;101884.31;;;0.74;100.00
69058;BME280;56128;37.534;-122.308;2023-02-17T13:25:13;101881.72;;;0.70;100.00
69058;BME280;56128;37.534;-122.308;2023-02-17T13:27:50;101886.97;;;0.71;100.00
69058;BME280;56128;37.534;-122.308;2023-02-17T13:32:44;101894.84;;;0.74;100.00
69058;BME280;56128;37.534;-122.308;2023-02-17T13:37:44;101887.81;;;0.73;100.00
69058;BME280;56128;37.534;-122.308;2023-02-17T13:42:47;101884.34;;;0.71;100.00
69058;BME280;56128;37.534;-122.308;2023-02-17T13:45:26;101891.41;;;0.69;100.00
69058;BME280;56128;37.534;-122.308;2023-02-17T13:47:58;101889.59;;;0.71;100.00
69058;BME280;56128;37.534;-122.308;2023-02-17T13:50:28;101888.72;;;0.72;100.00
69058;BME280;56128;37.534;-122.308;2023-02-17T13:52:55;101892.19;;;0.74;100.00
69058;BME280;56128;37.534;-122.308;2023-02-17T13:55:22;101881.66;;;0.74;100.00
69058;BME280;56128;37.534;-122.308;2023-02-17T13:57:54;101872.94;;;0.71;100.00